CheckWX is a tool to help pilots better visualize weather data.  It is not intended as a substitute for an official pre-flight weather briefing.

14:11:33 UTC

KFRM METAR
Fairmont Municipal Airport
Fairmont, Minnesota, USA
Current

16 mins ago

KFRM 201356Z AUTO 06008KT 10SM FEW009 OVC040 21/20 A2982 RMK AO2 RAE07 SLP092 T02110200 PNO $
Observed
Jul-20 @ 13:56 UTC
Wind
  • 060° at 8 KTS
Visibility
10 SM
Flight Rules
VFR
Cloud Levels
  • Few at 900' AGL
  • Overcast at 4,000' AGL
Temperature
21°C / 70°F
Dewpoint
20°C / 68°F
Humidity
94%
Altimeter
29.82" Hg
Pressure
1009.82 hPa
Previous

1 hour ago

KFRM 201256Z AUTO 02014G22KT 10SM -RA SCT023 OVC035 21/19 A2981 RMK AO2 PK WND 31030/1214 LTG DSNT N AND NE RAB16 SLP088 T02060194 PNO $
Observed
Jul-20 @ 12:56 UTC
Wind
  • 020° at 14 KTS
  • Gusting to 22 KTS
Visibility
10 SM
Flight Rules
VFR
Conditions
Light Rain
Cloud Levels
  • Scattered at 2,300' AGL
  • Overcast at 3,500' AGL
Temperature
21°C / 70°F
Dewpoint
19°C / 66°F
Humidity
88%
Altimeter
29.81" Hg
Pressure
1009.52 hPa
Previous

2 hours ago

KFRM 201235Z AUTO 35015G23KT 5SM -RA BR SCT006 BKN016 OVC021 21/21 A2981 RMK AO2 PK WND 31030/1214 LTG DSNT N AND NE RAB16 PNO $
Observed
Jul-20 @ 12:35 UTC
Wind
  • 350° at 15 KTS
  • Gusting to 23 KTS
Visibility
5 SM
Flight Rules
MVFR
Conditions
Light Rain, Mist
Cloud Levels
  • Scattered at 600' AGL
  • Broken at 1,600' AGL
  • Overcast at 2,100' AGL
Temperature
21°C / 70°F
Dewpoint
21°C / 70°F
Humidity
100%
Altimeter
29.81" Hg
Pressure
1009.52 hPa